Time;durP1;ratioP1;P1;durP2;ratioP2;P2;SDS_P1;SDS_P2;PMS_P1;PMS_P2;Temp;Humidity;BMP_temperature;BMP_pressure;BME280_temperature;BME280_humidity;BME280_pressure;Samples;Min_cycle;Max_cycle;Signal;HPM_P1;HPM_P2
2023/10/25 00:02:07;;;;;;;20.47;12.20;;;9.50;98.00;;;;;;5123388;27;20514;-74
2023/10/25 00:04:33;;;;;;;20.43;11.80;;;9.40;97.90;;;;;;5090509;28;20402;-74
2023/10/25 00:06:58;;;;;;;20.73;12.03;;;9.40;98.00;;;;;;5090326;28;20401;-73
2023/10/25 00:09:24;;;;;;;20.50;11.80;;;9.40;97.90;;;;;;5090664;28;20907;-74
2023/10/25 00:11:50;;;;;;;20.57;11.60;;;9.40;97.90;;;;;;5089884;28;20402;-74
2023/10/25 00:14:15;;;;;;;18.67;11.77;;;9.40;98.00;;;;;;5090477;28;20545;-74
2023/10/25 00:16:41;;;;;;;19.50;11.55;;;9.30;98.00;;;;;;5122445;27;20438;-74
2023/10/25 00:19:07;;;;;;;20.70;11.33;;;9.30;98.10;;;;;;5078459;28;20406;-73
2023/10/25 00:21:33;;;;;;;21.75;11.52;;;9.30;98.00;;;;;;5088133;28;20454;-74
2023/10/25 00:23:58;;;;;;;18.03;11.30;;;9.30;98.10;;;;;;5088365;28;20450;-74
2023/10/25 00:26:24;;;;;;;19.20;11.43;;;9.30;98.00;;;;;;5089514;28;20912;-72
2023/10/25 00:28:50;;;;;;;20.67;11.27;;;9.30;98.20;;;;;;5089642;28;20394;-72
2023/10/25 00:31:16;;;;;;;17.83;10.77;;;9.20;98.20;;;;;;5088707;28;20442;-72
2023/10/25 00:33:42;;;;;;;19.07;11.23;;;9.20;98.40;;;;;;5089648;28;20491;-72
2023/10/25 00:36:07;;;;;;;17.40;11.27;;;9.20;98.10;;;;;;5089793;28;20422;-72
2023/10/25 00:38:33;;;;;;;17.77;10.53;;;9.10;98.00;;;;;;5122954;27;20413;-72
2023/10/25 00:40:59;;;;;;;17.00;10.93;;;9.20;97.90;;;;;;5108366;27;20969;-72
2023/10/25 00:43:24;;;;;;;19.23;11.03;;;9.10;98.00;;;;;;5089803;28;20394;-72
2023/10/25 00:46:01;;;;;;;19.55;10.75;;;9.10;98.00;;;;;;5089705;28;20409;-72
2023/10/25 00:48:29;;;;;;;18.87;10.63;;;9.20;98.20;;;;;;5073978;28;20512;-72
2023/10/25 00:50:55;;;;;;;20.15;10.70;;;9.10;98.10;;;;;;5084168;28;20935;-72
2023/10/25 00:53:23;;;;;;;21.13;11.27;;;9.10;98.40;;;;;;5089842;28;20402;-72
2023/10/25 00:55:49;;;;;;;20.50;11.18;;;9.10;98.10;;;;;;5088409;28;20455;-73
2023/10/25 00:58:15;;;;;;;19.45;11.02;;;9.10;98.20;;;;;;5089099;28;20442;-72
2023/10/25 01:00:41;;;;;;;17.80;10.53;;;9.10;98.10;;;;;;5089241;28;20477;-72
2023/10/25 01:03:07;;;;;;;18.65;10.63;;;9.10;98.20;;;;;;5087238;28;20444;-72
2023/10/25 01:05:34;;;;;;;18.80;10.65;;;9.10;98.40;;;;;;5088642;28;20398;-72
2023/10/25 01:07:59;;;;;;;18.13;10.80;;;9.10;98.10;;;;;;5089344;28;20409;-71
2023/10/25 01:10:26;;;;;;;18.53;10.73;;;9.10;98.10;;;;;;5089329;28;20394;-71
2023/10/25 01:12:51;;;;;;;17.40;10.20;;;9.00;98.00;;;;;;5076767;28;21838;-71
2023/10/25 01:15:22;;;;;;;18.10;10.63;;;9.00;98.10;;;;;;5088863;28;20423;-71
2023/10/25 01:17:47;;;;;;;16.27;9.68;;;9.00;98.10;;;;;;5088761;28;20429;-71
2023/10/25 01:20:13;;;;;;;21.88;10.48;;;9.00;98.10;;;;;;5088951;28;20406;-71
2023/10/25 01:22:38;;;;;;;20.00;10.23;;;9.00;98.10;;;;;;5088708;28;20410;-70
2023/10/25 01:25:05;;;;;;;15.63;9.75;;;9.00;98.10;;;;;;5121775;27;20908;-71
2023/10/25 01:27:30;;;;;;;17.98;10.02;;;9.00;98.20;;;;;;5088037;28;20899;-71
2023/10/25 01:29:56;;;;;;;15.77;9.70;;;9.00;98.10;;;;;;5089225;28;20489;-71
2023/10/25 01:32:21;;;;;;;16.15;9.68;;;8.90;98.10;;;;;;5086955;28;20413;-71
2023/10/25 01:34:47;;;;;;;14.77;9.40;;;8.90;98.10;;;;;;5088682;28;20473;-71
2023/10/25 01:37:13;;;;;;;16.85;9.77;;;8.90;98.10;;;;;;5088085;28;20783;-71
2023/10/25 01:39:38;;;;;;;17.70;9.87;;;8.90;98.00;;;;;;5088370;28;20899;-71
2023/10/25 01:42:05;;;;;;;17.20;9.73;;;8.90;98.00;;;;;;5087236;28;20816;-71
2023/10/25 01:44:31;;;;;;;16.87;9.90;;;8.90;98.00;;;;;;5087030;28;20452;-71
2023/10/25 01:46:57;;;;;;;15.45;9.80;;;8.80;98.20;;;;;;5087195;28;20414;-72
2023/10/25 01:49:23;;;;;;;15.73;9.90;;;8.80;98.00;;;;;;5088472;28;20772;-72
2023/10/25 01:51:49;;;;;;;15.80;9.63;;;8.80;98.00;;;;;;5088298;28;20496;-72
2023/10/25 01:54:14;;;;;;;13.52;8.95;;;8.80;98.00;;;;;;5086686;28;20464;-72
2023/10/25 01:56:40;;;;;;;14.85;8.88;;;8.80;97.90;;;;;;5069991;28;20440;-72
2023/10/25 01:59:06;;;;;;;16.70;9.33;;;8.80;97.90;;;;;;5088759;28;20394;-72
2023/10/25 02:01:31;;;;;;;14.55;8.82;;;8.80;98.00;;;;;;5088193;28;20784;-72
2023/10/25 02:03:57;;;;;;;13.57;9.10;;;8.70;97.90;;;;;;5088417;28;20768;-72
2023/10/25 02:06:23;;;;;;;14.32;9.00;;;8.70;97.90;;;;;;5086304;28;20918;-72
2023/10/25 02:08:49;;;;;;;15.98;9.07;;;8.70;98.00;;;;;;5086760;28;20410;-72
2023/10/25 02:11:15;;;;;;;15.20;8.10;;;8.70;98.00;;;;;;5086717;28;20406;-72
2023/10/25 02:13:41;;;;;;;15.63;8.57;;;8.70;98.00;;;;;;5086888;28;20500;-72
2023/10/25 02:16:15;;;;;;;16.80;8.70;;;8.70;97.90;;;;;;5076988;28;20537;-72
2023/10/25 02:18:40;;;;;;;14.32;9.23;;;8.70;98.10;;;;;;5087802;28;20413;-72
2023/10/25 02:21:06;;;;;;;16.63;9.20;;;8.70;98.00;;;;;;5087741;28;20406;-72
2023/10/25 02:23:32;;;;;;;13.90;8.33;;;8.70;98.00;;;;;;5087786;28;20422;-72
2023/10/25 02:25:57;;;;;;;15.40;8.93;;;8.60;98.00;;;;;;5086396;28;20501;-72
2023/10/25 02:28:23;;;;;;;14.23;8.77;;;8.60;98.00;;;;;;5087960;28;20876;-72
2023/10/25 02:30:48;;;;;;;19.60;8.68;;;8.60;98.00;;;;;;5086403;28;20491;-73
2023/10/25 02:33:14;;;;;;;16.10;9.15;;;8.60;98.00;;;;;;5087837;28;20506;-72
2023/10/25 02:35:40;;;;;;;16.43;8.47;;;8.50;97.90;;;;;;5087523;28;20402;-73
2023/10/25 02:38:05;;;;;;;14.52;8.75;;;8.50;98.10;;;;;;5087976;28;20437;-72
2023/10/25 02:40:31;;;;;;;14.23;8.70;;;8.50;98.00;;;;;;5087334;28;20394;-72
2023/10/25 02:42:57;;;;;;;14.23;8.93;;;8.50;98.00;;;;;;5086056;28;20393;-73
2023/10/25 02:45:22;;;;;;;16.90;9.20;;;8.50;98.00;;;;;;5087436;28;20421;-72
2023/10/25 02:47:48;;;;;;;17.45;9.70;;;8.50;98.00;;;;;;5087949;28;20482;-72
2023/10/25 02:50:15;;;;;;;16.10;9.03;;;8.50;98.00;;;;;;5076711;28;20564;-73
2023/10/25 02:52:43;;;;;;;16.30;9.60;;;8.50;98.10;;;;;;5086619;28;20932;-72
2023/10/25 02:55:09;;;;;;;16.35;9.40;;;8.50;98.10;;;;;;5087180;28;20408;-73
2023/10/25 02:57:35;;;;;;;18.60;10.03;;;8.50;98.10;;;;;;5086546;28;20430;-73
2023/10/25 03:00:00;;;;;;;17.98;9.55;;;8.50;98.20;;;;;;5087524;28;20463;-73
2023/10/25 03:02:26;;;;;;;19.50;10.17;;;8.50;98.20;;;;;;5087570;28;20749;-72
2023/10/25 03:04:51;;;;;;;17.70;9.65;;;8.50;98.20;;;;;;5087361;28;20398;-72
2023/10/25 03:07:17;;;;;;;18.43;9.80;;;8.50;98.20;;;;;;5087684;28;20402;-72
2023/10/25 03:09:43;;;;;;;18.00;9.90;;;8.40;98.30;;;;;;5086026;28;20425;-73
2023/10/25 03:12:08;;;;;;;19.05;10.48;;;8.50;98.30;;;;;;5087704;28;20473;-72
2023/10/25 03:14:34;;;;;;;21.93;10.03;;;8.40;98.20;;;;;;5086992;28;20405;-73
2023/10/25 03:17:00;;;;;;;17.50;9.88;;;8.40;98.20;;;;;;5088262;28;20436;-72
2023/10/25 03:19:29;;;;;;;17.80;10.27;;;8.40;98.30;;;;;;5080415;28;20831;-73
2023/10/25 03:21:54;;;;;;;17.88;10.27;;;8.40;98.30;;;;;;5091430;28;20755;-72
2023/10/25 03:24:20;;;;;;;18.17;10.32;;;8.40;98.20;;;;;;5091033;28;20408;-72
2023/10/25 03:26:46;;;;;;;21.43;11.37;;;8.30;98.20;;;;;;5124587;27;20413;-73
2023/10/25 03:29:11;;;;;;;21.17;11.70;;;8.30;98.20;;;;;;5090670;28;21310;-72
2023/10/25 03:31:38;;;;;;;20.90;11.52;;;8.40;98.30;;;;;;5089714;28;20426;-72
2023/10/25 03:34:04;;;;;;;19.70;11.52;;;8.30;98.40;;;;;;5089380;28;20406;-72
2023/10/25 03:36:30;;;;;;;20.52;11.80;;;8.30;98.30;;;;;;5091242;28;20499;-72
2023/10/25 03:38:55;;;;;;;24.25;12.02;;;8.30;98.30;;;;;;5090757;28;20886;-73
2023/10/25 03:41:21;;;;;;;22.27;11.80;;;8.30;98.30;;;;;;5072892;28;20736;-73
2023/10/25 03:43:46;;;;;;;22.40;12.45;;;8.30;98.40;;;;;;5090190;28;20455;-72
2023/10/25 03:46:12;;;;;;;22.57;12.53;;;8.30;98.40;;;;;;5091015;28;20821;-72
2023/10/25 03:48:38;;;;;;;23.40;13.25;;;8.30;98.40;;;;;;5089233;28;20410;-73
2023/10/25 03:51:05;;;;;;;21.75;12.43;;;8.30;98.40;;;;;;5090877;28;20476;-72
2023/10/25 03:53:35;;;;;;;21.08;12.23;;;8.30;98.30;;;;;;5090295;28;20426;-73
2023/10/25 03:56:01;;;;;;;21.97;13.17;;;8.30;98.30;;;;;;5090889;28;20823;-73
2023/10/25 03:58:26;;;;;;;22.37;13.30;;;8.20;98.30;;;;;;5088625;28;20433;-73
2023/10/25 04:01:00;;;;;;;21.30;13.68;;;8.20;98.30;;;;;;5123815;27;20803;-73
2023/10/25 04:03:26;;;;;;;25.27;14.15;;;8.20;98.30;;;;;;5090011;28;20418;-72
2023/10/25 04:05:52;;;;;;;22.88;14.18;;;8.20;98.40;;;;;;5090193;28;20518;-73
2023/10/25 04:08:18;;;;;;;23.45;14.43;;;8.20;98.40;;;;;;5090000;28;20394;-73
2023/10/25 04:10:58;;;;;;;23.83;14.47;;;8.20;98.50;;;;;;5090712;28;20402;-73
2023/10/25 04:13:24;;;;;;;26.52;14.95;;;8.20;98.50;;;;;;5090161;28;20410;-73
2023/10/25 04:15:54;;;;;;;25.02;14.13;;;8.20;98.50;;;;;;5088521;28;20397;-73
2023/10/25 04:18:19;;;;;;;23.98;14.25;;;8.20;98.50;;;;;;5089909;28;20849;-73
2023/10/25 04:20:45;;;;;;;24.30;13.93;;;8.20;98.60;;;;;;5089783;28;20497;-73
2023/10/25 04:23:11;;;;;;;26.38;15.00;;;8.20;98.80;;;;;;5089663;28;20413;-73
2023/10/25 04:25:36;;;;;;;24.27;14.67;;;8.20;98.90;;;;;;5088610;28;20440;-73
2023/10/25 04:28:02;;;;;;;27.03;14.37;;;8.20;99.00;;;;;;5122332;27;20420;-72
2023/10/25 04:30:28;;;;;;;24.15;14.00;;;8.30;99.00;;;;;;5088543;28;20402;-73
2023/10/25 04:32:53;;;;;;;22.60;14.03;;;8.30;98.90;;;;;;5081589;28;20410;-72
2023/10/25 04:35:19;;;;;;;23.55;13.88;;;8.30;98.80;;;;;;5083452;28;20401;-73
2023/10/25 04:37:44;;;;;;;24.37;13.43;;;8.30;98.70;;;;;;5088610;28;20927;-73
2023/10/25 04:40:10;;;;;;;21.20;12.80;;;8.20;98.60;;;;;;5089985;28;20475;-73
2023/10/25 04:42:36;;;;;;;20.13;12.93;;;8.30;98.60;;;;;;5084068;28;20441;-71
2023/10/25 04:45:02;;;;;;;22.30;13.13;;;8.20;98.60;;;;;;5084788;28;20907;-71
2023/10/25 04:47:27;;;;;;;19.60;12.43;;;8.20;98.50;;;;;;5077671;28;20433;-72
2023/10/25 04:49:53;;;;;;;22.30;12.83;;;8.20;98.50;;;;;;5087057;28;20792;-72
2023/10/25 04:52:19;;;;;;;21.77;12.38;;;8.20;98.60;;;;;;5089136;28;20398;-72
2023/10/25 04:54:44;;;;;;;21.85;12.45;;;8.10;98.50;;;;;;5087909;28;20463;-72
2023/10/25 04:57:10;;;;;;;21.43;12.03;;;8.10;98.60;;;;;;5089415;28;20433;-72
2023/10/25 04:59:35;;;;;;;19.40;12.38;;;8.10;98.60;;;;;;5089186;28;20405;-72
2023/10/25 05:02:01;;;;;;;22.27;12.37;;;8.10;98.60;;;;;;5088335;28;20463;-71
2023/10/25 05:04:27;;;;;;;23.02;12.02;;;8.10;98.60;;;;;;5089258;28;20484;-68
2023/10/25 05:06:53;;;;;;;22.30;12.13;;;8.10;98.60;;;;;;5088954;28;20418;-70
2023/10/25 05:09:19;;;;;;;20.45;11.73;;;8.10;98.60;;;;;;5088918;28;20428;-71
2023/10/25 05:11:54;;;;;;;21.67;12.00;;;8.00;98.60;;;;;;5087154;28;20426;-71
2023/10/25 05:14:20;;;;;;;20.43;12.00;;;8.00;98.50;;;;;;5084164;28;20441;-72
2023/10/25 05:16:46;;;;;;;19.70;11.23;;;8.00;98.60;;;;;;5087958;28;20823;-72
2023/10/25 05:19:12;;;;;;;23.42;12.25;;;8.00;98.60;;;;;;5087205;28;20418;-73
2023/10/25 05:21:41;;;;;;;22.05;12.52;;;8.00;98.70;;;;;;5104348;28;20815;-73
2023/10/25 05:24:07;;;;;;;20.90;12.00;;;8.00;98.60;;;;;;5089018;28;20486;-73
2023/10/25 05:26:33;;;;;;;23.33;12.27;;;8.00;98.60;;;;;;5086897;28;20412;-73
2023/10/25 05:28:59;;;;;;;20.00;10.88;;;7.90;98.60;;;;;;5089108;28;20888;-72
2023/10/25 05:31:26;;;;;;;23.40;11.45;;;7.90;98.50;;;;;;5087875;28;20916;-72
2023/10/25 05:33:53;;;;;;;24.42;11.90;;;7.90;98.60;;;;;;5088344;28;21158;-73
2023/10/25 05:36:19;;;;;;;22.43;11.70;;;7.90;98.70;;;;;;5087590;28;20406;-73
2023/10/25 05:38:44;;;;;;;19.33;11.77;;;7.90;98.70;;;;;;5075801;28;20513;-73
2023/10/25 05:41:22;;;;;;;20.13;11.35;;;7.90;98.50;;;;;;5088469;28;20536;-73
2023/10/25 05:44:14;;;;;;;22.83;12.45;;;7.90;98.50;;;;;;5088120;28;20406;-73
2023/10/25 05:46:41;;;;;;;21.15;11.80;;;7.80;98.40;;;;;;5070076;28;20498;-73
2023/10/25 05:49:07;;;;;;;19.77;11.80;;;7.80;98.50;;;;;;5085133;28;20410;-73
2023/10/25 05:51:33;;;;;;;22.00;11.98;;;7.80;98.60;;;;;;5087409;28;20398;-73
2023/10/25 05:54:00;;;;;;;20.67;11.80;;;7.80;98.70;;;;;;5086599;28;20451;-72
2023/10/25 05:56:26;;;;;;;18.33;11.48;;;7.80;98.70;;;;;;5086579;28;20425;-74
2023/10/25 05:58:55;;;;;;;19.77;11.35;;;7.70;98.70;;;;;;5088373;28;20424;-73
2023/10/25 06:01:36;;;;;;;21.17;11.35;;;7.70;98.80;;;;;;5087807;28;20444;-73
2023/10/25 06:04:04;;;;;;;18.50;11.90;;;7.80;98.90;;;;;;5076640;28;20461;-73
2023/10/25 06:06:31;;;;;;;21.17;11.38;;;7.70;99.00;;;;;;5088002;28;20398;-73
2023/10/25 06:08:57;;;;;;;18.50;11.18;;;7.70;98.80;;;;;;5088153;28;20447;-73
2023/10/25 06:11:23;;;;;;;21.38;12.32;;;7.70;98.80;;;;;;5087372;28;20401;-73
2023/10/25 06:13:48;;;;;;;23.43;12.33;;;7.70;98.90;;;;;;5088058;28;20402;-73
2023/10/25 06:16:14;;;;;;;19.67;12.03;;;7.70;98.80;;;;;;5086818;28;20414;-73
2023/10/25 06:18:40;;;;;;;21.75;12.68;;;7.70;98.80;;;;;;5087870;28;20410;-73
2023/10/25 06:21:05;;;;;;;20.57;12.03;;;7.70;98.90;;;;;;5087336;28;20494;-74
2023/10/25 06:23:33;;;;;;;21.58;11.88;;;7.60;98.90;;;;;;5086971;28;20483;-74
2023/10/25 06:25:59;;;;;;;21.80;12.10;;;7.70;98.90;;;;;;5087886;28;20458;-74
2023/10/25 06:28:25;;;;;;;21.88;12.10;;;7.60;98.90;;;;;;5088048;28;20410;-74
2023/10/25 06:30:51;;;;;;;21.30;11.87;;;7.60;98.90;;;;;;5120276;28;20466;-74
2023/10/25 06:33:17;;;;;;;19.27;11.40;;;7.60;98.90;;;;;;5086600;28;20412;-74
2023/10/25 06:35:45;;;;;;;20.10;11.52;;;7.60;98.90;;;;;;5087282;28;20824;-74
2023/10/25 06:38:11;;;;;;;19.45;11.43;;;7.60;98.90;;;;;;5086708;28;20438;-74
2023/10/25 06:40:37;;;;;;;19.42;11.38;;;7.60;99.00;;;;;;5085716;28;20402;-74
2023/10/25 06:43:03;;;;;;;20.75;11.18;;;7.60;99.00;;;;;;5087173;28;20406;-73
2023/10/25 06:45:28;;;;;;;19.23;11.05;;;7.60;99.00;;;;;;5086181;28;20405;-74
2023/10/25 06:47:56;;;;;;;21.50;11.27;;;7.60;98.90;;;;;;5086172;28;20398;-74
2023/10/25 06:50:25;;;;;;;22.80;11.02;;;7.60;99.00;;;;;;5086029;28;20538;-73
2023/10/25 06:52:51;;;;;;;18.00;10.40;;;7.60;99.00;;;;;;5089934;28;20969;-74
2023/10/25 06:55:17;;;;;;;19.75;10.63;;;7.60;99.10;;;;;;5089976;28;20481;-74
2023/10/25 06:57:43;;;;;;;20.07;10.80;;;7.60;99.10;;;;;;5091414;28;20591;-74
2023/10/25 07:00:09;;;;;;;20.80;10.63;;;7.60;99.20;;;;;;5089699;28;20409;-74
2023/10/25 07:02:56;;;;;;;18.23;10.77;;;7.60;99.20;;;;;;5090410;28;20413;-74
2023/10/25 07:05:25;;;;;;;18.77;10.57;;;7.70;99.60;;;;;;5086635;28;20449;-74
2023/10/25 07:07:52;;;;;;;17.38;10.52;;;7.70;99.30;;;;;;5091422;28;20394;-74
2023/10/25 07:10:18;;;;;;;18.60;10.45;;;7.70;99.40;;;;;;5090087;28;20405;-74
2023/10/25 07:12:45;;;;;;;17.92;10.73;;;7.70;99.40;;;;;;5124020;27;20402;-74
2023/10/25 07:15:11;;;;;;;25.75;11.20;;;7.70;99.40;;;;;;5090202;28;20414;-74
2023/10/25 07:17:38;;;;;;;20.27;11.27;;;7.70;99.50;;;;;;5091141;28;20426;-74
2023/10/25 07:20:07;;;;;;;18.70;11.70;;;7.80;99.50;;;;;;5089362;28;20413;-73
2023/10/25 07:22:33;;;;;;;20.73;11.65;;;7.70;99.50;;;;;;5091581;28;20469;-74
2023/10/25 07:24:59;;;;;;;20.27;11.63;;;7.80;99.50;;;;;;5091374;28;20535;-74
2023/10/25 07:27:24;;;;;;;18.15;11.00;;;7.80;99.50;;;;;;5090929;28;20406;-74
2023/10/25 07:29:52;;;;;;;19.60;11.52;;;7.80;99.60;;;;;;5090913;28;20594;-74
2023/10/25 07:32:18;;;;;;;21.13;12.07;;;7.90;99.70;;;;;;5090911;28;20445;-74
2023/10/25 07:34:43;;;;;;;19.23;11.57;;;7.90;99.70;;;;;;5090740;28;20401;-74
2023/10/25 07:37:09;;;;;;;18.07;11.37;;;7.90;99.70;;;;;;5090525;28;20929;-73
2023/10/25 07:39:35;;;;;;;21.55;12.10;;;7.90;99.70;;;;;;5089293;28;20980;-72
2023/10/25 07:42:04;;;;;;;21.17;12.10;;;8.00;99.70;;;;;;5089572;28;20821;-73
2023/10/25 07:44:29;;;;;;;20.17;12.20;;;8.00;99.70;;;;;;5091097;28;20416;-73
2023/10/25 07:46:55;;;;;;;17.23;11.38;;;8.00;99.70;;;;;;5090258;28;20547;-73
2023/10/25 07:49:20;;;;;;;21.20;11.68;;;8.00;99.70;;;;;;5091219;28;20473;-73
2023/10/25 07:51:46;;;;;;;19.27;11.53;;;8.00;99.80;;;;;;5090413;28;20402;-73
2023/10/25 07:54:12;;;;;;;17.17;11.02;;;8.00;99.80;;;;;;5089898;28;20408;-73
2023/10/25 07:56:37;;;;;;;17.57;11.77;;;8.10;99.70;;;;;;5088100;28;20428;-73
2023/10/25 07:59:03;;;;;;;17.55;11.55;;;8.10;99.90;;;;;;5090006;28;20408;-73
2023/10/25 08:01:29;;;;;;;16.92;11.68;;;8.20;99.90;;;;;;5090466;28;20402;-73
2023/10/25 08:03:55;;;;;;;20.17;11.30;;;8.20;99.90;;;;;;5088425;28;20416;-73
2023/10/25 08:06:21;;;;;;;18.00;11.20;;;8.30;99.90;;;;;;5090576;28;20776;-73
2023/10/25 08:08:49;;;;;;;20.77;11.90;;;8.30;99.90;;;;;;5089613;28;20424;-73
2023/10/25 08:11:15;;;;;;;17.77;11.23;;;8.30;99.90;;;;;;5088719;28;20980;-73
2023/10/25 08:13:42;;;;;;;18.20;11.18;;;8.40;99.90;;;;;;5079143;28;20441;-73
2023/10/25 08:16:08;;;;;;;17.58;11.00;;;8.40;99.90;;;;;;5090137;28;20409;-73
2023/10/25 08:18:35;;;;;;;16.70;10.90;;;8.50;99.90;;;;;;5089655;28;20429;-73
2023/10/25 08:21:01;;;;;;;14.07;10.57;;;8.50;99.90;;;;;;5088681;28;20398;-73
2023/10/25 08:23:28;;;;;;;20.58;10.40;;;8.50;99.90;;;;;;5090142;28;20409;-73
2023/10/25 08:25:54;;;;;;;17.60;10.38;;;8.60;99.90;;;;;;5089873;28;20441;-73
2023/10/25 08:28:19;;;;;;;18.67;10.60;;;8.60;99.90;;;;;;5089642;28;20438;-73
2023/10/25 08:30:45;;;;;;;15.75;9.73;;;8.60;99.90;;;;;;5088097;28;20437;-73
2023/10/25 08:33:11;;;;;;;17.80;10.38;;;8.70;99.90;;;;;;5089964;28;20398;-73
2023/10/25 08:35:37;;;;;;;18.63;10.05;;;8.70;99.90;;;;;;5089269;28;20434;-73
2023/10/25 08:38:06;;;;;;;16.30;10.57;;;8.80;99.90;;;;;;5089911;28;20430;-73
2023/10/25 08:40:32;;;;;;;17.42;10.20;;;8.90;99.90;;;;;;5110216;27;20402;-73
2023/10/25 08:43:01;;;;;;;18.25;10.57;;;9.00;99.90;;;;;;5089197;28;20745;-73
2023/10/25 08:45:29;;;;;;;17.30;9.93;;;9.00;99.90;;;;;;5089453;28;20414;-73
2023/10/25 08:47:54;;;;;;;17.55;10.32;;;9.10;99.90;;;;;;5088715;28;20923;-73
2023/10/25 08:50:20;;;;;;;16.23;9.95;;;9.20;99.90;;;;;;5089433;28;20405;-73
2023/10/25 08:52:49;;;;;;;16.33;9.63;;;9.20;99.90;;;;;;5088243;28;20513;-73
2023/10/25 08:55:19;;;;;;;16.80;10.25;;;9.30;99.90;;;;;;5088544;28;20485;-73
2023/10/25 08:57:44;;;;;;;15.13;10.32;;;9.40;99.90;;;;;;5079464;28;20936;-73
2023/10/25 09:00:12;;;;;;;16.37;10.13;;;9.50;99.90;;;;;;5087720;28;20432;-73
2023/10/25 09:02:38;;;;;;;16.15;9.63;;;9.60;99.90;;;;;;5089007;28;20448;-73
2023/10/25 09:05:08;;;;;;;16.95;9.98;;;9.60;99.90;;;;;;5088402;28;20986;-73
2023/10/25 09:07:35;;;;;;;14.80;9.82;;;9.70;99.90;;;;;;5089473;28;20504;-73
2023/10/25 09:10:12;;;;;;;15.80;10.00;;;9.80;99.90;;;;;;5088506;28;20956;-73
2023/10/25 09:12:37;;;;;;;13.98;9.50;;;9.90;99.90;;;;;;5088562;28;20414;-73
2023/10/25 09:15:04;;;;;;;16.95;9.48;;;10.10;99.90;;;;;;5086086;28;20410;-73
2023/10/25 09:17:33;;;;;;;16.45;9.52;;;10.10;99.50;;;;;;5089166;28;20429;-73
2023/10/25 09:19:58;;;;;;;13.65;9.27;;;10.10;98.60;;;;;;5087958;28;20814;-73
2023/10/25 09:22:30;;;;;;;17.10;9.95;;;10.10;98.20;;;;;;5088072;28;20475;-73
2023/10/25 09:25:00;;;;;;;15.45;9.80;;;10.10;98.00;;;;;;5088779;28;20418;-72
2023/10/25 09:27:27;;;;;;;16.97;10.30;;;10.10;97.90;;;;;;5088755;28;20394;-73
2023/10/25 09:29:54;;;;;;;16.15;9.52;;;10.20;97.70;;;;;;5088721;28;20486;-73
2023/10/25 09:32:21;;;;;;;21.38;10.90;;;10.20;97.50;;;;;;5070063;28;20409;-73
2023/10/25 09:34:48;;;;;;;16.33;9.90;;;10.20;97.40;;;;;;5088870;28;20478;-73
2023/10/25 09:37:14;;;;;;;13.93;9.20;;;10.20;97.20;;;;;;5088684;28;20421;-73
2023/10/25 09:39:40;;;;;;;18.02;9.68;;;10.20;96.80;;;;;;5087091;28;20414;-73
2023/10/25 09:42:10;;;;;;;19.85;9.80;;;10.20;96.70;;;;;;5088158;28;20406;-73
2023/10/25 09:44:47;;;;;;;22.35;9.85;;;10.20;96.60;;;;;;5088828;28;20410;-73
2023/10/25 09:47:15;;;;;;;14.88;8.20;;;10.20;96.40;;;;;;5088381;28;20896;-73
2023/10/25 09:49:49;;;;;;;10.95;7.70;;;10.30;96.50;;;;;;5087903;28;20398;-73
2023/10/25 09:52:21;;;;;;;15.30;9.10;;;10.30;96.20;;;;;;5086626;28;20414;-72
2023/10/25 09:54:51;;;;;;;13.88;8.48;;;10.30;96.20;;;;;;5088038;28;20768;-73
2023/10/25 09:57:21;;;;;;;14.10;8.48;;;10.40;96.20;;;;;;5087215;28;20471;-73
2023/10/25 09:59:47;;;;;;;13.77;8.50;;;10.40;96.20;;;;;;5087504;28;20439;-73
2023/10/25 10:02:36;;;;;;;15.13;8.23;;;10.40;96.20;;;;;;5088045;28;20475;-73
2023/10/25 10:05:15;;;;;;;14.75;8.75;;;10.50;96.10;;;;;;5066680;28;20414;-73
2023/10/25 10:07:55;;;;;;;12.95;8.15;;;10.50;96.30;;;;;;5088109;28;20912;-73
2023/10/25 10:10:22;;;;;;;13.23;7.93;;;10.60;96.50;;;;;;5087281;28;20527;-73
2023/10/25 10:12:48;;;;;;;13.98;8.63;;;10.70;96.30;;;;;;5088039;28;20507;-73
2023/10/25 10:15:15;;;;;;;14.18;7.85;;;10.80;96.30;;;;;;5086404;28;20474;-73
2023/10/25 10:17:44;;;;;;;14.27;8.32;;;10.80;96.10;;;;;;5087676;28;20436;-73
2023/10/25 10:20:29;;;;;;;12.90;8.38;;;10.90;96.20;;;;;;5087028;28;20822;-73
2023/10/25 10:23:02;;;;;;;14.57;8.07;;;11.10;96.70;;;;;;5075679;28;20459;-73
2023/10/25 10:25:50;;;;;;;14.15;8.30;;;11.30;96.60;;;;;;5087724;28;20930;-73
2023/10/25 10:28:35;;;;;;;12.38;7.22;;;11.50;96.90;;;;;;5087073;28;20402;-73
2023/10/25 10:31:01;;;;;;;13.35;7.80;;;11.80;96.60;;;;;;5086496;28;20420;-73
2023/10/25 10:33:26;;;;;;;10.45;6.50;;;12.10;95.90;;;;;;5088025;28;20398;-73
2023/10/25 10:35:52;;;;;;;11.00;6.70;;;12.40;94.20;;;;;;5087568;28;20398;-73
2023/10/25 10:38:18;;;;;;;11.68;6.20;;;12.60;93.40;;;;;;5077869;28;20832;-73
2023/10/25 10:40:50;;;;;;;10.70;6.03;;;12.80;92.70;;;;;;5085450;28;20498;-73
2023/10/25 10:43:17;;;;;;;12.75;6.45;;;13.10;92.10;;;;;;5088095;28;20417;-73
2023/10/25 10:45:44;;;;;;;11.43;5.97;;;13.30;91.40;;;;;;5081563;28;20438;-73
2023/10/25 10:48:17;;;;;;;10.07;5.82;;;13.50;88.10;;;;;;5068679;28;20411;-73
2023/10/25 10:50:43;;;;;;;9.10;5.93;;;13.60;86.20;;;;;;5086286;28;20420;-73
2023/10/25 10:53:09;;;;;;;10.02;5.70;;;13.70;83.20;;;;;;5076352;28;20404;-73
2023/10/25 10:55:35;;;;;;;9.77;6.00;;;13.90;87.80;;;;;;5087346;28;20471;-73
2023/10/25 10:58:02;;;;;;;9.63;5.47;;;14.40;84.80;;;;;;5076194;28;20431;-73
2023/10/25 11:00:28;;;;;;;8.30;5.20;;;14.40;71.70;;;;;;5087634;28;20394;-73
2023/10/25 11:02:54;;;;;;;8.48;4.88;;;14.30;73.10;;;;;;5086697;28;20926;-73
2023/10/25 11:05:21;;;;;;;9.07;4.77;;;14.50;77.70;;;;;;5086964;28;20402;-73
2023/10/25 11:07:48;;;;;;;9.95;5.10;;;14.90;75.50;;;;;;5087197;28;20488;-73
2023/10/25 11:10:14;;;;;;;9.20;4.63;;;15.10;67.00;;;;;;5087712;28;20406;-73
2023/10/25 11:12:40;;;;;;;8.50;4.30;;;15.20;63.10;;;;;;5086846;28;20425;-73
2023/10/25 11:15:06;;;;;;;10.02;4.60;;;15.40;63.00;;;;;;5087051;28;20394;-73
2023/10/25 11:17:35;;;;;;;9.75;4.57;;;15.50;60.60;;;;;;5087026;28;20480;-73
2023/10/25 11:20:01;;;;;;;7.93;4.25;;;15.30;55.90;;;;;;5097657;28;20415;-73
2023/10/25 11:22:30;;;;;;;8.15;3.97;;;15.30;53.30;;;;;;5082715;28;20402;-74
2023/10/25 11:24:57;;;;;;;10.68;4.18;;;15.20;58.60;;;;;;5086523;28;20412;-73
2023/10/25 11:27:29;;;;;;;12.38;3.90;;;15.20;55.20;;;;;;5069049;28;20493;-73
2023/10/25 11:29:54;;;;;;;9.02;3.63;;;15.10;57.40;;;;;;5085813;28;20417;-73
2023/10/25 11:32:20;;;;;;;8.65;3.75;;;15.20;58.90;;;;;;5086905;28;20835;-73
2023/10/25 11:34:47;;;;;;;7.67;3.80;;;15.20;59.20;;;;;;5087087;28;20452;-73
2023/10/25 11:37:12;;;;;;;10.55;4.28;;;15.30;59.60;;;;;;5086955;28;20502;-73
2023/10/25 11:39:55;;;;;;;10.73;4.90;;;15.30;48.60;;;;;;5090000;28;20405;-73
2023/10/25 11:42:20;;;;;;;10.75;4.90;;;15.20;50.90;;;;;;5090566;28;20414;-73
2023/10/25 11:44:46;;;;;;;9.63;4.90;;;15.20;54.50;;;;;;5090372;28;20466;-73
2023/10/25 11:47:20;;;;;;;8.73;4.40;;;15.10;57.10;;;;;;5089767;28;20412;-73
2023/10/25 11:49:51;;;;;;;8.52;4.43;;;15.00;57.30;;;;;;5090657;28;21097;-73
2023/10/25 11:52:23;;;;;;;6.87;4.83;;;14.80;53.50;;;;;;5090289;28;20413;-73
2023/10/25 11:54:55;;;;;;;10.07;4.70;;;14.70;53.00;;;;;;5090323;28;20406;-73
2023/10/25 11:57:22;;;;;;;8.10;4.90;;;14.40;53.70;;;;;;5090633;28;20450;-73
2023/10/25 11:59:47;;;;;;;6.95;5.20;;;14.30;56.60;;;;;;5090582;28;20409;-73
2023/10/25 12:02:13;;;;;;;8.13;5.00;;;14.20;58.50;;;;;;5089801;28;20417;-73
2023/10/25 12:04:39;;;;;;;8.73;4.67;;;14.10;63.90;;;;;;5090200;28;20812;-73
2023/10/25 12:07:04;;;;;;;8.80;3.70;;;14.00;61.90;;;;;;5090707;28;20406;-73
2023/10/25 12:09:30;;;;;;;8.03;3.20;;;14.00;62.60;;;;;;5090076;28;20768;-73
2023/10/25 12:11:55;;;;;;;7.13;3.25;;;13.90;63.40;;;;;;5090201;28;20398;-73
2023/10/25 12:14:21;;;;;;;8.57;3.53;;;13.90;64.80;;;;;;5090122;28;20488;-73
2023/10/25 12:16:47;;;;;;;7.45;3.38;;;13.90;63.10;;;;;;5088541;28;20425;-73
2023/10/25 12:19:12;;;;;;;7.10;3.10;;;13.80;61.80;;;;;;5089967;28;20429;-73
2023/10/25 12:21:38;;;;;;;8.77;2.78;;;13.80;64.70;;;;;;5089202;28;20413;-73
2023/10/25 12:24:04;;;;;;;7.37;2.80;;;13.80;63.60;;;;;;5090235;28;20405;-73
2023/10/25 12:26:29;;;;;;;6.80;2.42;;;13.70;61.70;;;;;;5088712;28;20402;-73
2023/10/25 12:28:55;;;;;;;6.15;2.58;;;13.70;58.60;;;;;;5089684;28;20968;-73
2023/10/25 12:31:21;;;;;;;5.80;2.67;;;13.60;59.60;;;;;;5080578;28;20429;-73
2023/10/25 12:33:46;;;;;;;9.20;3.73;;;13.60;63.40;;;;;;5088931;28;20421;-73
2023/10/25 12:36:12;;;;;;;8.57;3.80;;;13.60;64.70;;;;;;5089926;28;20405;-73
2023/10/25 12:38:37;;;;;;;8.13;3.60;;;13.60;65.20;;;;;;5089844;28;20437;-73
2023/10/25 12:41:03;;;;;;;8.93;3.65;;;13.60;65.40;;;;;;5089543;28;20760;-72